createdAt,value
2022-11-21T00:03:29.953Z,3.55
2022-11-21T00:05:31.418Z,3.55
2022-11-21T00:07:33.216Z,3.55
2022-11-21T00:09:34.917Z,3.55
2022-11-21T00:11:36.731Z,3.55
2022-11-21T00:13:38.166Z,3.56
2022-11-21T00:15:39.411Z,3.55
2022-11-21T00:19:42.782Z,3.55
2022-11-21T00:21:44.662Z,3.55
2022-11-21T00:25:47.078Z,3.55
2022-11-21T00:27:48.871Z,3.55
2022-11-21T00:29:50.498Z,3.55
2022-11-21T00:31:51.885Z,3.55
2022-11-21T00:35:55.093Z,3.55
2022-11-21T00:37:57.021Z,3.55
2022-11-21T00:39:58.753Z,3.55
2022-11-21T00:42:00.516Z,3.55
2022-11-21T00:46:03.474Z,3.55
2022-11-21T00:48:04.965Z,3.55
2022-11-21T00:50:06.817Z,3.55
2022-11-21T00:52:08.386Z,3.55
2022-11-21T00:54:09.365Z,3.55
2022-11-21T00:56:10.866Z,3.55
2022-11-21T00:58:12.805Z,3.55
2022-11-21T01:02:15.993Z,3.55
2022-11-21T01:04:17.271Z,3.55
2022-11-21T01:08:19.998Z,3.55
2022-11-21T01:10:21.598Z,3.55
2022-11-21T01:12:23.151Z,3.55
2022-11-21T01:14:25.194Z,3.55
2022-11-21T01:18:27.304Z,3.55
2022-11-21T01:20:28.871Z,3.55
2022-11-21T01:22:30.022Z,3.55
2022-11-21T01:24:31.527Z,3.55
2022-11-21T01:28:33.939Z,3.55
2022-11-21T01:30:35.228Z,3.55
2022-11-21T01:34:38.684Z,3.55
2022-11-21T01:36:39.905Z,3.55
2022-11-21T01:38:41.433Z,3.55
2022-11-21T01:40:43.264Z,3.55
2022-11-21T01:44:46.047Z,3.55
2022-11-21T01:46:47.591Z,3.54
2022-11-21T01:48:48.964Z,3.55
2022-11-21T01:50:50.126Z,3.54
2022-11-21T01:52:51.323Z,3.55
2022-11-21T01:54:52.731Z,3.55
2022-11-21T01:56:54.364Z,3.54
2022-11-21T02:00:57.765Z,3.54
2022-11-21T02:02:59.462Z,3.54
2022-11-21T02:05:01.235Z,3.55
2022-11-21T02:07:02.390Z,3.54
2022-11-21T02:09:03.768Z,3.54
2022-11-21T02:11:05.366Z,3.55
2022-11-21T02:13:06.765Z,3.54
2022-11-21T02:17:09.137Z,3.54
2022-11-21T02:19:10.290Z,3.54
2022-11-21T02:21:11.680Z,3.54
2022-11-21T02:23:13.393Z,3.54
2022-11-21T02:27:16.631Z,3.54
2022-11-21T02:29:17.645Z,3.54
2022-11-21T02:31:19.294Z,3.54
2022-11-21T02:33:20.543Z,3.54
2022-11-21T02:35:21.970Z,3.54
2022-11-21T02:37:23.199Z,3.54
2022-11-21T02:39:24.306Z,3.54
2022-11-21T02:43:27.195Z,3.54
2022-11-21T02:45:28.564Z,3.54
2022-11-21T02:47:30.180Z,3.54
2022-11-21T02:49:31.430Z,3.54
2022-11-21T02:51:32.862Z,3.54
2022-11-21T02:53:34.421Z,3.54
2022-11-21T02:55:35.768Z,3.54
2022-11-21T02:59:39.217Z,3.54
2022-11-21T03:01:40.216Z,3.54
2022-11-21T03:03:41.310Z,3.54
2022-11-21T03:05:42.814Z,3.54
2022-11-21T03:09:45.754Z,3.54
2022-11-21T03:11:47.464Z,3.54
2022-11-21T03:15:49.775Z,3.54
2022-11-21T03:17:51.373Z,3.54
2022-11-21T03:19:52.774Z,3.54
2022-11-21T03:21:53.835Z,3.54
2022-11-21T03:25:56.788Z,3.54
2022-11-21T03:27:58.289Z,3.54
2022-11-21T03:29:59.247Z,3.54
2022-11-21T03:32:00.806Z,3.54
2022-11-21T03:34:02.289Z,3.54
2022-11-21T03:36:03.488Z,3.54
2022-11-21T03:38:05.059Z,3.54
2022-11-21T03:42:07.990Z,3.54
2022-11-21T03:44:09.028Z,3.54
2022-11-21T03:46:10.247Z,3.54
2022-11-21T03:48:11.242Z,3.54
2022-11-21T03:52:13.406Z,3.54
2022-11-21T03:54:15.043Z,3.54
2022-11-21T03:56:16.147Z,3.54
2022-11-21T03:58:17.833Z,3.54
2022-11-21T04:00:19.043Z,3.54
2022-11-21T04:02:20.192Z,3.54
2022-11-21T04:04:21.351Z,3.54
2022-11-21T04:08:24.365Z,3.54
2022-11-21T04:10:26.150Z,3.54
2022-11-21T04:12:27.509Z,3.54
2022-11-21T04:14:29.849Z,3.54
2022-11-21T04:16:30.820Z,3.54
2022-11-21T04:18:31.961Z,3.54
2022-11-21T04:20:33.307Z,3.54
2022-11-21T04:24:35.871Z,3.54
2022-11-21T04:26:37.016Z,3.53
2022-11-21T04:28:38.642Z,3.53
2022-11-21T04:30:39.967Z,3.53
2022-11-21T04:32:40.951Z,3.54
2022-11-21T04:34:42.465Z,3.53
2022-11-21T04:36:44.443Z,3.53
2022-11-21T04:40:46.736Z,3.53
2022-11-21T04:42:49.438Z,3.53
2022-11-21T04:44:49.862Z,3.53
2022-11-21T04:46:51.030Z,3.53
2022-11-21T04:50:53.812Z,3.54
2022-11-21T04:52:55.104Z,3.53
2022-11-21T04:56:57.636Z,3.53
2022-11-21T04:58:59.200Z,3.53
2022-11-21T05:01:01.148Z,3.53
2022-11-21T05:03:02.871Z,3.53
2022-11-21T05:07:05.471Z,3.53
2022-11-21T05:09:06.822Z,3.53
2022-11-21T05:11:08.662Z,3.53
2022-11-21T05:13:10.120Z,3.53
2022-11-21T05:15:11.135Z,3.53
2022-11-21T05:17:12.421Z,3.53
2022-11-21T05:19:13.690Z,3.53
2022-11-21T05:23:17.219Z,3.53
2022-11-21T05:25:18.218Z,3.53
2022-11-21T05:27:19.415Z,3.53
2022-11-21T05:30:04.773Z,3.53
2022-11-21T05:32:06.398Z,3.53
2022-11-21T05:34:08.207Z,3.53
2022-11-21T05:36:09.468Z,3.53
2022-11-21T05:38:11.034Z,3.53
2022-11-21T05:40:12.822Z,3.53
2022-11-21T05:44:15.801Z,3.53
2022-11-21T05:46:17.095Z,3.53
2022-11-21T05:50:20.059Z,3.53
2022-11-21T05:52:21.084Z,3.52
2022-11-21T05:54:22.438Z,3.53
2022-11-21T05:56:23.854Z,3.53
2022-11-21T06:00:27.136Z,3.53
2022-11-21T06:02:28.206Z,3.53
2022-11-21T06:04:30.431Z,3.53
2022-11-21T06:06:31.253Z,3.53
2022-11-21T06:08:32.798Z,3.52
2022-11-21T06:10:34.704Z,3.53
2022-11-21T06:12:36.597Z,3.53
2022-11-21T06:16:39.989Z,3.52
2022-11-21T06:18:41.618Z,3.52
2022-11-21T06:20:43.263Z,3.52
2022-11-21T06:22:45.258Z,3.52
2022-11-21T06:26:47.981Z,3.53
2022-11-21T06:28:49.160Z,3.53
2022-11-21T06:30:50.350Z,3.52
2022-11-21T06:32:51.728Z,3.53
2022-11-21T06:34:53.512Z,3.52
2022-11-21T06:36:54.895Z,3.53
2022-11-21T06:38:56.563Z,3.53
2022-11-21T06:43:00.059Z,3.53
2022-11-21T06:45:01.563Z,3.52
2022-11-21T06:47:03.466Z,3.52
2022-11-21T06:49:04.558Z,3.52
2022-11-21T06:51:05.905Z,3.52
2022-11-21T06:53:07.337Z,3.52
2022-11-21T06:55:18.225Z,3.52
2022-11-21T06:59:12.191Z,3.52
2022-11-21T07:01:14.011Z,3.52
2022-11-21T07:03:15.830Z,3.52
2022-11-21T07:05:17.742Z,3.52
2022-11-21T07:09:34.058Z,3.52
2022-11-21T07:11:25.634Z,3.52
2022-11-21T07:13:23.765Z,3.52
2022-11-21T07:15:24.841Z,3.52
2022-11-21T07:17:26.289Z,3.52
2022-11-21T07:19:27.974Z,3.52
2022-11-21T07:21:28.867Z,3.52
2022-11-21T07:25:36.400Z,3.52
2022-11-21T07:27:33.491Z,3.52
2022-11-21T07:29:34.496Z,3.52
2022-11-21T07:31:35.489Z,3.52
2022-11-21T07:33:37.329Z,3.52
2022-11-21T07:35:39.247Z,3.52
2022-11-21T07:37:40.856Z,3.52
2022-11-21T07:41:44.040Z,3.52
2022-11-21T07:43:45.930Z,3.52
2022-11-21T07:45:47.330Z,3.52
2022-11-21T07:47:48.976Z,3.52
2022-11-21T07:51:52.072Z,3.52
2022-11-21T07:53:53.561Z,3.52
2022-11-21T07:57:56.190Z,3.52
2022-11-21T07:59:57.586Z,3.52
2022-11-21T08:01:59.320Z,3.52
2022-11-21T08:04:00.987Z,3.52
2022-11-21T08:08:04.073Z,3.52
2022-11-21T08:10:05.349Z,3.52
2022-11-21T08:12:06.519Z,3.52
2022-11-21T08:14:08.162Z,3.52
2022-11-21T08:16:09.591Z,3.52
2022-11-21T08:18:10.828Z,3.52
2022-11-21T08:20:12.205Z,3.52
2022-11-21T08:24:15.128Z,3.52
2022-11-21T08:26:16.572Z,3.52
2022-11-21T08:28:18.117Z,3.52
2022-11-21T08:30:19.990Z,3.52
2022-11-21T08:34:23.448Z,3.52
2022-11-21T08:36:25.189Z,3.52
2022-11-21T08:38:26.616Z,3.52
2022-11-21T08:40:28.169Z,3.52
2022-11-21T08:42:29.765Z,3.52
2022-11-21T08:44:31.240Z,3.52
2022-11-21T08:46:32.313Z,3.52
2022-11-21T08:50:35.224Z,3.52
2022-11-21T08:52:37.166Z,3.52
2022-11-21T08:54:38.209Z,3.52
2022-11-21T08:56:39.578Z,3.52
2022-11-21T08:58:41.449Z,3.53
2022-11-21T09:00:42.940Z,3.54
2022-11-21T09:02:44.280Z,3.54
2022-11-21T09:06:48.014Z,3.54
2022-11-21T09:08:48.428Z,3.53
2022-11-21T09:10:50.102Z,3.52
2022-11-21T09:12:51.251Z,3.52
2022-11-21T09:16:57.996Z,3.53
2022-11-21T09:18:56.174Z,3.54
2022-11-21T09:20:57.141Z,3.54
2022-11-21T09:22:58.892Z,3.54
2022-11-21T09:25:00.857Z,3.55
2022-11-21T09:27:02.436Z,3.54
2022-11-21T09:29:03.891Z,3.57
2022-11-21T09:33:06.846Z,3.56
2022-11-21T09:35:08.647Z,3.54
2022-11-21T09:39:11.692Z,3.54
2022-11-21T09:41:13.434Z,3.54
2022-11-21T09:43:15.311Z,3.54
2022-11-21T09:45:17.122Z,3.54
2022-11-21T09:49:20.043Z,3.54
2022-11-21T09:51:21.968Z,3.54
2022-11-21T09:53:23.471Z,3.54
2022-11-21T09:55:24.760Z,3.54
2022-11-21T09:59:26.769Z,3.54
2022-11-21T10:01:28.820Z,3.54
2022-11-21T10:03:30.400Z,3.54
2022-11-21T10:05:32.133Z,3.54
2022-11-21T10:07:34.024Z,3.54
2022-11-21T10:09:35.387Z,3.54
2022-11-21T10:11:36.786Z,3.54
2022-11-21T10:15:40.093Z,3.54
2022-11-21T10:17:41.200Z,3.54
2022-11-21T10:19:42.224Z,3.54
2022-11-21T10:21:43.498Z,3.57
2022-11-21T10:23:44.976Z,3.56
2022-11-21T10:25:46.280Z,3.55
2022-11-21T10:27:47.465Z,3.57
2022-11-21T10:31:50.493Z,3.56
2022-11-21T10:33:52.155Z,3.57
2022-11-21T10:35:54.103Z,3.55
2022-11-21T10:37:55.118Z,3.55
2022-11-21T10:39:56.244Z,3.56
2022-11-21T10:41:57.392Z,3.55
2022-11-21T10:43:59.033Z,3.55
2022-11-21T10:48:05.286Z,3.58
2022-11-21T10:50:03.111Z,3.58
2022-11-21T10:52:04.309Z,3.58
2022-11-21T10:54:07.948Z,3.58
2022-11-21T10:58:09.280Z,3.59
2022-11-21T11:00:10.266Z,3.61
2022-11-21T11:04:27.074Z,3.61
2022-11-21T11:06:14.995Z,3.6
2022-11-21T11:10:18.349Z,3.62
2022-11-21T11:14:19.989Z,3.6
2022-11-21T11:16:21.932Z,3.62
2022-11-21T11:18:22.592Z,3.62
2022-11-21T11:20:23.721Z,3.62
2022-11-21T11:22:25.236Z,3.62
2022-11-21T11:24:26.458Z,3.61
2022-11-21T11:26:27.710Z,3.6
2022-11-21T11:30:31.113Z,3.6
2022-11-21T11:32:32.647Z,3.63
2022-11-21T11:34:33.933Z,3.61
2022-11-21T11:36:35.102Z,3.63
2022-11-21T11:40:38.046Z,3.64
2022-11-21T11:42:39.745Z,3.63
2022-11-21T11:46:42.098Z,3.64
2022-11-21T11:49:03.546Z,3.64
2022-11-21T11:50:45.000Z,3.62
2022-11-21T11:52:47.021Z,3.62
2022-11-21T11:56:49.442Z,3.62
2022-11-21T11:58:50.595Z,3.64
2022-11-21T12:00:52.240Z,3.64
2022-11-21T12:02:53.155Z,3.64
2022-11-21T12:04:54.949Z,3.64
2022-11-21T12:08:58.066Z,3.65
2022-11-21T12:12:59.822Z,3.64
2022-11-21T12:13:43.550Z,3.65
2022-11-21T12:17:46.979Z,3.64
2022-11-21T12:19:47.058Z,3.62
2022-11-21T12:23:49.020Z,3.64
2022-11-21T12:25:50.759Z,3.62
2022-11-21T12:27:52.287Z,3.62
2022-11-21T12:29:53.647Z,3.62
2022-11-21T12:33:55.936Z,3.65
2022-11-21T12:36:09.184Z,3.66
2022-11-21T12:37:58.494Z,3.66
2022-11-21T12:40:00.119Z,3.62
2022-11-21T12:42:01.380Z,3.62
2022-11-21T12:44:02.973Z,3.63
2022-11-21T12:46:04.065Z,3.63
2022-11-21T12:50:07.572Z,3.64
2022-11-21T12:52:09.202Z,3.63
2022-11-21T12:54:10.683Z,3.62
2022-11-21T12:56:12.073Z,3.62
2022-11-21T12:58:13.117Z,3.62
2022-11-21T13:00:14.049Z,3.62
2022-11-21T13:02:15.898Z,3.65
2022-11-21T13:06:19.208Z,3.62
2022-11-21T13:08:24.368Z,3.62
2022-11-21T13:10:21.907Z,3.62
2022-11-21T13:12:23.006Z,3.62
2022-11-21T13:16:25.895Z,3.66
2022-11-21T13:18:27.657Z,3.66
2022-11-21T13:22:29.602Z,3.65
2022-11-21T13:24:30.741Z,3.62
2022-11-21T13:26:32.002Z,3.63
2022-11-21T13:28:33.119Z,3.63
2022-11-21T13:32:35.944Z,3.62
2022-11-21T13:34:37.194Z,3.62
2022-11-21T13:36:38.578Z,3.62
2022-11-21T13:38:40.187Z,3.62
2022-11-21T13:40:41.870Z,3.63
2022-11-21T13:42:42.922Z,3.63
2022-11-21T13:44:44.339Z,3.63
2022-11-21T13:48:47.105Z,3.63
2022-11-21T13:50:48.335Z,3.63
2022-11-21T13:52:49.508Z,3.64
2022-11-21T13:54:51.413Z,3.65
2022-11-21T13:58:53.848Z,3.66
2022-11-21T14:00:55.172Z,3.64
2022-11-21T14:02:56.664Z,3.63
2022-11-21T14:04:58.223Z,3.63
2022-11-21T14:06:59.168Z,3.63
2022-11-21T14:09:00.747Z,3.62
2022-11-21T14:11:02.315Z,3.62
2022-11-21T14:15:05.177Z,3.62
2022-11-21T14:17:06.716Z,3.62
2022-11-21T14:21:09.160Z,3.62
2022-11-21T14:23:10.167Z,3.62
2022-11-21T14:25:11.700Z,3.62
2022-11-21T14:27:13.668Z,3.62
2022-11-21T14:31:16.764Z,3.62
2022-11-21T14:33:18.662Z,3.62
2022-11-21T14:35:20.351Z,3.62
2022-11-21T14:37:21.832Z,3.61
2022-11-21T14:41:25.503Z,3.62
2022-11-21T14:43:26.628Z,3.64
2022-11-21T14:47:29.507Z,3.62
2022-11-21T14:49:30.768Z,3.63
2022-11-21T14:51:32.082Z,3.64
2022-11-21T14:53:33.522Z,3.62
2022-11-21T14:55:35.201Z,3.62
2022-11-21T14:57:36.263Z,3.62
2022-11-21T14:59:37.269Z,3.62
2022-11-21T15:03:39.910Z,3.62
2022-11-21T15:06:01.195Z,3.62
2022-11-21T15:07:42.925Z,3.62
2022-11-21T15:15:49.727Z,3.62
2022-11-21T15:18:18.356Z,3.61
2022-11-21T15:19:52.695Z,3.61
2022-11-21T15:21:53.806Z,3.61
2022-11-21T15:23:55.790Z,3.62
2022-11-21T15:26:00.821Z,3.61
2022-11-21T15:30:01.327Z,3.61
2022-11-21T15:32:03.339Z,3.61
2022-11-21T15:34:34.657Z,3.61
2022-11-21T15:36:05.936Z,3.61
2022-11-21T15:38:07.075Z,3.61
2022-11-21T15:40:08.745Z,3.61
2022-11-21T15:42:10.642Z,3.61
2022-11-21T15:46:14.146Z,3.61
2022-11-21T15:48:15.172Z,3.61
2022-11-21T15:50:16.375Z,3.61
2022-11-21T15:52:17.517Z,3.61
2022-11-21T15:57:13.639Z,3.61
2022-11-21T15:57:13.695Z,3.61
2022-11-21T15:58:22.174Z,3.61
2022-11-21T16:00:23.696Z,3.61
2022-11-21T16:02:25.161Z,3.61
2022-11-21T16:04:26.529Z,3.61
2022-11-21T16:06:27.687Z,3.61
2022-11-21T16:08:29.074Z,3.6
2022-11-21T16:12:31.763Z,3.61
2022-11-21T16:14:33.070Z,3.61
2022-11-21T16:18:36.390Z,3.61
2022-11-21T16:20:38.240Z,3.61
2022-11-21T16:22:44.266Z,3.6
2022-11-21T16:24:41.415Z,3.6
2022-11-21T16:28:44.910Z,3.6
2022-11-21T16:30:46.762Z,3.6
2022-11-21T16:32:48.092Z,3.6
2022-11-21T16:34:49.909Z,3.6
2022-11-21T16:38:53.297Z,3.6
2022-11-21T16:40:54.976Z,3.6
2022-11-21T16:42:56.533Z,3.6
2022-11-21T16:44:57.697Z,3.6
2022-11-21T16:47:01.187Z,3.6
2022-11-21T16:49:00.288Z,3.6
2022-11-21T16:51:01.376Z,3.6
2022-11-21T16:55:04.582Z,3.6
2022-11-21T16:57:06.547Z,3.6
2022-11-21T16:59:08.316Z,3.6
2022-11-21T17:01:09.884Z,3.6
2022-11-21T17:03:11.148Z,3.61
2022-11-21T17:05:12.233Z,3.6
2022-11-21T17:07:13.770Z,3.6
2022-11-21T17:11:17.038Z,3.6
2022-11-21T17:13:18.351Z,3.6
2022-11-21T17:15:20.318Z,3.6
2022-11-21T17:17:21.895Z,3.6
2022-11-21T17:19:23.531Z,3.6
2022-11-21T17:21:24.624Z,3.6
2022-11-21T17:23:26.614Z,3.6
2022-11-21T17:27:29.654Z,3.6
2022-11-21T17:29:30.873Z,3.6
2022-11-21T17:31:32.535Z,3.6
2022-11-21T17:33:34.113Z,3.6
2022-11-21T17:37:36.856Z,3.6
2022-11-21T17:39:38.801Z,3.6
2022-11-21T17:41:40.400Z,3.6
2022-11-21T17:43:42.301Z,3.6
2022-11-21T17:45:43.755Z,3.6
2022-11-21T17:47:47.005Z,3.6
2022-11-21T17:49:47.991Z,3.6
2022-11-21T17:53:50.377Z,3.6
2022-11-21T17:55:52.160Z,3.6
2022-11-21T17:57:53.735Z,3.6
2022-11-21T17:59:54.782Z,3.6
2022-11-21T18:01:56.864Z,3.6
2022-11-21T18:03:58.399Z,3.6
2022-11-21T18:05:59.522Z,3.6
2022-11-21T18:10:20.778Z,3.6
2022-11-21T18:12:03.517Z,3.6
2022-11-21T18:14:05.065Z,3.6
2022-11-21T18:16:06.752Z,3.6
2022-11-21T18:20:09.982Z,3.6
2022-11-21T18:22:11.471Z,3.6
2022-11-21T18:24:13.058Z,3.6
2022-11-21T18:26:14.592Z,3.6
2022-11-21T18:28:16.058Z,3.6
2022-11-21T18:30:17.834Z,3.6
2022-11-21T18:32:19.067Z,3.6
2022-11-21T18:36:22.156Z,3.6
2022-11-21T18:38:47.225Z,3.6
2022-11-21T18:40:25.467Z,3.6
2022-11-21T18:42:27.071Z,3.6
2022-11-21T18:44:29.073Z,3.6
2022-11-21T18:46:30.900Z,3.6
2022-11-21T18:48:54.792Z,3.6
2022-11-21T18:52:35.148Z,3.6
2022-11-21T18:54:36.646Z,3.6
2022-11-21T18:56:38.256Z,3.6
2022-11-21T18:58:39.824Z,3.6
2022-11-21T18:59:23.751Z,3.6
2022-11-21T19:01:25.587Z,3.6
2022-11-21T19:03:27.031Z,3.6
2022-11-21T19:05:28.303Z,3.6
2022-11-21T19:07:29.966Z,3.6
2022-11-21T19:09:32.806Z,3.59
2022-11-21T19:13:34.275Z,3.6
2022-11-21T19:15:35.768Z,3.6
2022-11-21T19:17:37.264Z,3.6
2022-11-21T19:19:38.312Z,3.6
2022-11-21T19:21:40.082Z,3.6
2022-11-21T19:23:41.666Z,3.6
2022-11-21T19:25:43.382Z,3.6
2022-11-21T19:29:46.438Z,3.6
2022-11-21T19:31:48.142Z,3.6
2022-11-21T19:33:49.801Z,3.6
2022-11-21T19:35:50.838Z,3.6
2022-11-21T19:39:53.272Z,3.6
2022-11-21T19:41:54.347Z,3.6
2022-11-21T19:43:55.622Z,3.6
2022-11-21T19:45:58.247Z,3.6
2022-11-21T19:47:59.372Z,3.6
2022-11-21T19:50:00.883Z,3.6
2022-11-21T19:52:02.718Z,3.6
2022-11-21T19:56:05.666Z,3.6
2022-11-21T19:58:07.367Z,3.6
2022-11-21T20:02:10.555Z,3.6
2022-11-21T20:04:11.756Z,3.6
2022-11-21T20:06:13.323Z,3.59
2022-11-21T20:08:17.811Z,3.6
2022-11-21T20:12:18.032Z,3.6
2022-11-21T20:14:22.107Z,3.59
2022-11-21T20:16:21.323Z,3.59
2022-11-21T20:18:22.611Z,3.59
2022-11-21T20:22:25.920Z,3.59
2022-11-21T20:24:27.759Z,3.59
2022-11-21T20:26:28.890Z,3.59
2022-11-21T20:28:30.474Z,3.6
2022-11-21T20:30:32.260Z,3.6
2022-11-21T20:32:33.329Z,3.59
2022-11-21T20:34:34.557Z,3.59
2022-11-21T20:38:37.436Z,3.6
2022-11-21T20:40:38.805Z,3.59
2022-11-21T20:45:36.301Z,3.59
2022-11-21T20:46:43.725Z,3.59
2022-11-21T20:48:45.064Z,3.6
2022-11-21T20:51:20.797Z,3.59
2022-11-21T20:54:48.763Z,3.59
2022-11-21T20:56:49.842Z,3.59
2022-11-21T20:58:51.189Z,3.6
2022-11-21T21:00:52.254Z,3.59
2022-11-21T21:02:54.006Z,3.59
2022-11-21T21:04:55.356Z,3.59
2022-11-21T21:06:57.000Z,3.6
2022-11-21T21:11:05.955Z,3.59
2022-11-21T21:13:00.681Z,3.59
2022-11-21T21:15:01.945Z,3.59
2022-11-21T21:17:03.765Z,3.59
2022-11-21T21:21:16.311Z,3.59
2022-11-21T21:23:08.231Z,3.59
2022-11-21T21:25:09.442Z,3.59
2022-11-21T21:27:11.322Z,3.59
2022-11-21T21:29:13.275Z,3.59
2022-11-21T21:31:14.720Z,3.59
2022-11-21T21:33:16.668Z,3.59
2022-11-21T21:37:19.528Z,3.59
2022-11-21T21:39:21.316Z,3.59
2022-11-21T21:41:22.430Z,3.59
2022-11-21T21:43:23.941Z,3.59
2022-11-21T21:45:25.200Z,3.59
2022-11-21T21:47:26.932Z,3.59
2022-11-21T21:49:28.606Z,3.59
2022-11-21T21:53:31.877Z,3.59
2022-11-21T21:55:33.566Z,3.59
2022-11-21T21:57:37.784Z,3.59
2022-11-21T21:59:36.416Z,3.59
2022-11-21T22:03:40.048Z,3.59
2022-11-21T22:05:41.939Z,3.59
2022-11-21T22:07:43.397Z,3.59
2022-11-21T22:09:44.891Z,3.59
2022-11-21T22:11:45.929Z,3.59
2022-11-21T22:13:47.213Z,3.59
2022-11-21T22:15:48.665Z,3.59
2022-11-21T22:19:51.849Z,3.59
2022-11-21T22:21:53.385Z,3.58
2022-11-21T22:24:23.307Z,3.59
2022-11-21T22:25:56.386Z,3.58
2022-11-21T22:27:57.642Z,3.59
2022-11-21T22:29:59.005Z,3.59
2022-11-21T22:32:00.938Z,3.58
2022-11-21T22:36:04.263Z,3.59
2022-11-21T22:38:06.117Z,3.58
2022-11-21T22:40:07.152Z,3.58
2022-11-21T22:42:08.414Z,3.58
2022-11-21T22:46:11.261Z,3.58
2022-11-21T22:48:12.364Z,3.59
2022-11-21T22:52:15.428Z,3.58
2022-11-21T22:54:16.537Z,3.58
2022-11-21T22:56:17.953Z,3.59
2022-11-21T22:58:19.900Z,3.59
2022-11-21T23:02:23.026Z,3.59
2022-11-21T23:04:24.566Z,3.59
2022-11-21T23:06:26.475Z,3.58
2022-11-21T23:08:27.550Z,3.59
2022-11-21T23:10:28.877Z,3.59
2022-11-21T23:12:30.793Z,3.58
2022-11-21T23:14:32.550Z,3.58
2022-11-21T23:18:36.256Z,3.58
2022-11-21T23:20:38.057Z,3.58
2022-11-21T23:22:39.795Z,3.58
2022-11-21T23:24:40.784Z,3.58
2022-11-21T23:28:43.978Z,3.58
2022-11-21T23:30:45.915Z,3.58
2022-11-21T23:34:48.375Z,3.58
2022-11-21T23:36:49.406Z,3.58
2022-11-21T23:38:51.375Z,3.59
2022-11-21T23:40:52.457Z,3.58
2022-11-21T23:44:55.474Z,3.58
2022-11-21T23:46:56.981Z,3.58
2022-11-21T23:51:00.601Z,3.58
2022-11-21T23:53:02.401Z,3.58
2022-11-21T23:55:04.191Z,3.58
2022-11-21T23:57:05.278Z,3.58
